createdAt,value
2023-02-14T00:00:16.219Z,3
2023-02-14T00:05:15.947Z,3
2023-02-14T00:10:15.981Z,1
2023-02-14T00:15:16.124Z,1
2023-02-14T00:20:16.003Z,0
2023-02-14T00:25:16.134Z,1
2023-02-14T00:30:16.144Z,0
2023-02-14T00:35:16.068Z,0
2023-02-14T00:40:16.210Z,0
2023-02-14T00:45:16.026Z,1
2023-02-14T00:50:16.170Z,1
2023-02-14T00:55:16.128Z,2
2023-02-14T01:00:16.223Z,0
2023-02-14T01:05:16.293Z,2
2023-02-14T01:10:16.201Z,2
2023-02-14T01:15:16.106Z,2
2023-02-14T01:20:16.229Z,1
2023-02-14T01:25:16.245Z,0
2023-02-14T01:30:16.277Z,0
2023-02-14T01:35:16.187Z,1
2023-02-14T01:40:16.254Z,2
2023-02-14T01:45:16.237Z,1
2023-02-14T01:50:16.308Z,0
2023-02-14T01:55:16.359Z,0
2023-02-14T02:00:16.228Z,0
2023-02-14T02:05:16.392Z,0
2023-02-14T02:10:16.217Z,1
2023-02-14T02:15:16.260Z,0
2023-02-14T02:20:16.314Z,0
2023-02-14T02:25:16.378Z,1
2023-02-14T02:30:16.435Z,1
2023-02-14T02:35:16.458Z,2
2023-02-14T02:40:16.315Z,2
2023-02-14T02:45:16.317Z,2
2023-02-14T02:50:16.323Z,2
2023-02-14T02:55:16.448Z,0
2023-02-14T03:00:16.409Z,1
2023-02-14T03:05:16.732Z,2
2023-02-14T03:10:16.349Z,1
2023-02-14T03:15:16.380Z,1
2023-02-14T03:20:16.386Z,2
2023-02-14T03:25:16.457Z,0
2023-02-14T03:30:16.633Z,2
2023-02-14T03:35:16.492Z,4
2023-02-14T03:40:16.621Z,3
2023-02-14T03:45:16.579Z,2
2023-02-14T03:50:16.481Z,2
2023-02-14T03:55:16.411Z,1
2023-02-14T04:00:16.686Z,1
2023-02-14T04:05:16.636Z,2
2023-02-14T04:10:16.489Z,0
2023-02-14T04:15:16.525Z,2
2023-02-14T04:20:16.563Z,1
2023-02-14T04:25:16.560Z,3
2023-02-14T04:30:16.520Z,1
2023-02-14T04:35:16.752Z,1
2023-02-14T04:40:16.700Z,0
2023-02-14T04:45:16.604Z,0
2023-02-14T04:50:16.694Z,0
2023-02-14T04:55:17.054Z,0
2023-02-14T05:00:15.637Z,1
2023-02-14T05:05:15.659Z,1
2023-02-14T05:10:15.654Z,1
2023-02-14T05:15:15.692Z,2
2023-02-14T05:20:15.691Z,0
2023-02-14T05:25:15.673Z,1
2023-02-14T05:30:15.764Z,2
2023-02-14T05:35:15.781Z,2
2023-02-14T05:40:15.650Z,0
2023-02-14T05:45:15.647Z,1
2023-02-14T05:50:15.708Z,1
2023-02-14T05:55:15.920Z,0
2023-02-14T06:00:15.817Z,1
2023-02-14T06:05:15.800Z,2
2023-02-14T06:10:15.794Z,1
2023-02-14T06:15:15.796Z,1
2023-02-14T06:20:16.036Z,0
2023-02-14T06:25:15.915Z,1
2023-02-14T06:30:15.891Z,3
2023-02-14T06:35:15.964Z,3
2023-02-14T06:40:15.955Z,2
2023-02-14T06:45:15.829Z,1
2023-02-14T06:50:15.960Z,2
2023-02-14T06:55:15.896Z,1
2023-02-14T07:00:16.182Z,0
2023-02-14T07:05:15.933Z,0
2023-02-14T07:10:15.920Z,0
2023-02-14T07:15:16.014Z,0
2023-02-14T07:20:15.950Z,2
2023-02-14T07:25:15.904Z,2
2023-02-14T07:30:15.977Z,1
2023-02-14T07:35:15.984Z,0
2023-02-14T07:40:15.979Z,1
2023-02-14T07:45:21.566Z,1
2023-02-14T07:50:16.116Z,1
2023-02-14T07:55:15.962Z,0
2023-02-14T08:00:16.073Z,0
2023-02-14T08:05:16.201Z,0
2023-02-14T08:10:16.158Z,0
2023-02-14T08:15:16.253Z,0
2023-02-14T08:20:16.083Z,0
2023-02-14T08:25:16.101Z,0
2023-02-14T08:30:16.097Z,0
2023-02-14T08:35:16.079Z,0
2023-02-14T08:40:16.299Z,0
2023-02-14T08:45:16.121Z,0
2023-02-14T08:50:16.241Z,0
2023-02-14T08:55:16.265Z,0
2023-02-14T09:00:16.257Z,0
2023-02-14T09:05:16.284Z,0
2023-02-14T09:10:16.165Z,2
2023-02-14T09:15:16.258Z,2
2023-02-14T09:20:16.258Z,2
2023-02-14T09:25:16.299Z,2
2023-02-14T09:30:16.296Z,1
2023-02-14T09:35:16.252Z,2
2023-02-14T09:40:16.270Z,2
2023-02-14T09:45:16.417Z,4
2023-02-14T09:50:16.294Z,3
2023-02-14T09:55:16.147Z,4
2023-02-14T10:00:16.258Z,4
2023-02-14T10:05:16.365Z,5
2023-02-14T10:10:16.306Z,4
2023-02-14T10:15:16.392Z,4
2023-02-14T10:20:16.282Z,4
2023-02-14T10:25:16.440Z,6
2023-02-14T10:30:16.514Z,9
2023-02-14T10:35:16.320Z,9
2023-02-14T10:40:17.561Z,9
2023-02-14T10:45:16.440Z,9
2023-02-14T10:50:16.338Z,7
2023-02-14T10:55:31.456Z,10
2023-02-14T11:00:16.434Z,10
2023-02-14T11:05:16.491Z,10
2023-02-14T11:10:16.464Z,9
2023-02-14T11:15:16.771Z,7
2023-02-14T11:20:16.510Z,6
2023-02-14T11:25:16.487Z,4
2023-02-14T11:30:16.486Z,6
2023-02-14T11:35:16.556Z,8
2023-02-14T11:40:16.470Z,10
2023-02-14T11:45:16.596Z,7
2023-02-14T11:50:16.544Z,6
2023-02-14T11:55:16.388Z,6
2023-02-14T12:00:16.602Z,7
2023-02-14T12:05:16.533Z,5
2023-02-14T12:10:16.590Z,4
2023-02-14T12:15:16.522Z,5
2023-02-14T12:20:16.759Z,3
2023-02-14T12:25:16.732Z,6
2023-02-14T12:30:16.997Z,9
2023-02-14T12:35:16.610Z,11
2023-02-14T12:40:16.707Z,11
2023-02-14T12:45:16.711Z,13
2023-02-14T12:50:16.706Z,16
2023-02-14T12:55:16.696Z,16
2023-02-14T13:00:16.656Z,15
2023-02-14T13:05:16.683Z,12
2023-02-14T13:10:16.828Z,10
2023-02-14T13:15:16.720Z,9
2023-02-14T13:20:16.746Z,7
2023-02-14T13:25:16.680Z,10
2023-02-14T13:30:16.792Z,9
2023-02-14T13:35:16.754Z,6
2023-02-14T13:40:16.833Z,6
2023-02-14T13:45:16.747Z,5
2023-02-14T13:50:16.695Z,5
2023-02-14T13:55:16.735Z,6
2023-02-14T14:00:16.789Z,6
2023-02-14T14:05:16.838Z,6
2023-02-14T14:10:16.868Z,8
2023-02-14T14:15:16.789Z,9
2023-02-14T14:20:16.852Z,8
2023-02-14T14:25:16.947Z,8
2023-02-14T14:30:16.872Z,8
2023-02-14T14:35:17.043Z,8
2023-02-14T14:40:16.908Z,8
2023-02-14T14:45:16.862Z,8
2023-02-14T14:50:16.930Z,10
2023-02-14T14:55:17.039Z,10
2023-02-14T15:00:17.146Z,11
2023-02-14T15:05:16.976Z,10
2023-02-14T15:10:17.105Z,8
2023-02-14T15:15:17.026Z,13
2023-02-14T15:20:17.042Z,10
2023-02-14T15:25:17.029Z,11
2023-02-14T15:30:17.168Z,9
2023-02-14T15:35:17.228Z,12
2023-02-14T15:40:17.008Z,12
2023-02-14T15:45:17.200Z,12
2023-02-14T15:50:17.184Z,12
2023-02-14T15:55:17.109Z,12
2023-02-14T16:00:17.128Z,10
2023-02-14T16:05:17.132Z,13
2023-02-14T16:10:17.224Z,13
2023-02-14T16:15:17.151Z,11
2023-02-14T16:20:17.135Z,11
2023-02-14T16:25:17.241Z,10
2023-02-14T16:30:17.188Z,8
2023-02-14T16:35:17.242Z,10
2023-02-14T16:40:17.180Z,9
2023-02-14T16:45:17.361Z,9
2023-02-14T16:50:17.190Z,10
2023-02-14T16:55:17.301Z,9
2023-02-14T17:00:17.217Z,9
2023-02-14T17:05:17.265Z,9
2023-02-14T17:10:17.377Z,6
2023-02-14T17:15:17.270Z,8
2023-02-14T17:20:17.283Z,7
2023-02-14T17:25:17.458Z,8
2023-02-14T17:30:17.345Z,9
2023-02-14T17:35:17.574Z,7
2023-02-14T17:40:17.366Z,6
2023-02-14T17:45:17.364Z,4
2023-02-14T17:50:17.312Z,5
2023-02-14T17:55:20.572Z,6
2023-02-14T18:00:17.368Z,7
2023-02-14T18:05:17.379Z,6
2023-02-14T18:10:17.369Z,4
2023-02-14T18:15:17.508Z,4
2023-02-14T18:20:17.403Z,4
2023-02-14T18:25:15.445Z,5
2023-02-14T18:30:15.660Z,6
2023-02-14T18:35:15.426Z,7
2023-02-14T18:40:15.455Z,6
2023-02-14T18:45:15.395Z,6
2023-02-14T18:50:15.442Z,6
2023-02-14T18:55:15.476Z,5
2023-02-14T19:00:15.504Z,6
2023-02-14T19:05:15.490Z,7
2023-02-14T19:10:15.502Z,7
2023-02-14T19:15:15.725Z,7
2023-02-14T19:20:15.477Z,6
2023-02-14T19:25:15.463Z,7
2023-02-14T19:30:15.525Z,6
2023-02-14T19:35:15.614Z,5
2023-02-14T19:40:15.594Z,5
2023-02-14T19:45:15.577Z,3
2023-02-14T19:50:15.595Z,4
2023-02-14T19:55:15.525Z,5
2023-02-14T20:00:15.562Z,4
2023-02-14T20:05:15.579Z,4
2023-02-14T20:10:15.591Z,6
2023-02-14T20:15:15.749Z,6
2023-02-14T20:20:15.656Z,5
2023-02-14T20:25:15.638Z,5
2023-02-14T20:30:15.873Z,5
2023-02-14T20:35:15.608Z,5
2023-02-14T20:40:15.702Z,5
2023-02-14T20:45:15.690Z,5
2023-02-14T20:50:15.722Z,5
2023-02-14T20:55:15.705Z,5
2023-02-14T21:00:15.815Z,5
2023-02-14T21:05:15.753Z,5
2023-02-14T21:10:15.849Z,7
2023-02-14T21:15:15.897Z,4
2023-02-14T21:20:15.747Z,7
2023-02-14T21:25:15.816Z,7
2023-02-14T21:30:15.774Z,7
2023-02-14T21:35:15.901Z,6
2023-02-14T21:40:15.868Z,6
2023-02-14T21:45:15.905Z,5
2023-02-14T21:50:15.938Z,4
2023-02-14T21:55:15.952Z,5
2023-02-14T22:00:16.028Z,6
2023-02-14T22:05:16.022Z,5
2023-02-14T22:10:15.921Z,5
2023-02-14T22:15:15.873Z,4
2023-02-14T22:20:15.900Z,2
2023-02-14T22:25:15.852Z,1
2023-02-14T22:30:15.956Z,1
2023-02-14T22:35:16.253Z,2
2023-02-14T22:40:15.925Z,3
2023-02-14T22:45:15.918Z,4
2023-02-14T22:50:15.968Z,6
2023-02-14T22:55:16.044Z,5
2023-02-14T23:00:16.124Z,4
2023-02-14T23:05:16.038Z,3
2023-02-14T23:10:16.045Z,3
2023-02-14T23:15:16.014Z,3
2023-02-14T23:20:16.009Z,3
2023-02-14T23:25:16.138Z,2
2023-02-14T23:30:16.254Z,1
2023-02-14T23:35:16.096Z,3
2023-02-14T23:40:16.028Z,2
2023-02-14T23:45:16.133Z,2
2023-02-14T23:50:16.139Z,2
2023-02-14T23:55:16.022Z,2
